الصفحة الرئيسية
METAR-TAF:

METAR-TAF

مطار :

كوتا بارو, ماليزيا

دائرة عرض: 06-10N, خط طول: 102-17E, ارتفاع: 5 متر

مراقبة الطقس الحالي

تاريخ ووقت الإصدار 52 دقيقة قبل الساعة 06:00UTC
ريح 10 عقدة من الشرق, الاتجاه يتراوح بين الشمال/الشمال الشرقي و الشرق/الجنوب الشرقي
درجة الحرارة 33°درجة مئوية
الرطوبة 63%
ضغط 1009 hPa
الرؤية 10 كم أو أكثر
غيوم متفرقة على ارتفاع 1800 قدم

METAR: WMKC 130600Z 08010KT 030V120 9999 SCT018 33/25 Q1009

زمن: 14:52 (06:52 UTC)

توقعات

تاريخ ووقت الإصدار 1ساعة و 52 دقيقة قبل الساعة 05:00UTC
التوقعات صالحة من13 الساعة 06 UTC إلى 14 الساعة 06 UTC
ريح 10 عقدة من الشرق
الرؤية 10 كم أو أكثر
غيوم قليلة على ارتفاع 1800 قدم

TAF: WMKC 130500Z 1306/1406 09010KT 9999 FEW018

أرصاد الطقس والتوقعات من أكثر من 4000 مطار (تقارير الطقس للمطار METAR والتنبؤ بالطقس بالمطارTAF).

المحطات المتاحة هي النقط الصفراء والحمراء على الخريطة.

حرك المؤشر فوق النقطة لمعرفة اسم المحطة.

ثم انقر لمعرفة أرصاد وتوقعات الطقس.

لتغيير الخارطة: اضغط على الأزرار الخضراء مع رمز الصليب الأسود للتكبير. على الزر الأخضر مع شرطة للتصغير، أو على الأسهم الخضراء للخرائط المجاورة.


METAR-TAF: